CheckWX is a tool to help pilots better visualize weather data.  It is not intended as a substitute for an official pre-flight weather briefing.

12:36:10 UTC

KDVO METAR
Gnoss Field Airport
Novato, California, USA
Current

21 mins ago

KDVO 261215Z AUTO 11006KT 10SM CLR 14/09 A2991 RMK AO2
Observed
Jun-26 @ 12:15 UTC
Wind
  • 110° at 6 KTS
Visibility
10 SM
Flight Rules
VFR
Cloud Levels
  • Clear skies
Temperature
14°C / 57°F
Dewpoint
C / 48°F
Humidity
72%
Altimeter
29.91" Hg
Pressure
1012.92 hPa
Previous

41 mins ago

KDVO 261155Z AUTO 06007KT 10SM CLR 13/10 A2990 RMK AO2
Observed
Jun-26 @ 11:55 UTC
Wind
  • 060° at 7 KTS
Visibility
10 SM
Flight Rules
VFR
Cloud Levels
  • Clear skies
Temperature
13°C / 55°F
Dewpoint
10°C / 50°F
Humidity
82%
Altimeter
29.9" Hg
Pressure
1012.52 hPa
Previous

1 hour ago

KDVO 261135Z AUTO 03009KT 10SM CLR 13/10 A2990 RMK AO2
Observed
Jun-26 @ 11:35 UTC
Wind
  • 030° at 9 KTS
Visibility
10 SM
Flight Rules
VFR
Cloud Levels
  • Clear skies
Temperature
13°C / 55°F
Dewpoint
10°C / 50°F
Humidity
82%
Altimeter
29.9" Hg
Pressure
1012.52 hPa